Time;durP1;ratioP1;P1;durP2;ratioP2;P2;SDS_P1;SDS_P2;PMS_P1;PMS_P2;Temp;Humidity;BMP_temperature;BMP_pressure;BME280_temperature;BME280_humidity;BME280_pressure;Samples;Min_cycle;Max_cycle;Signal;HPM_P1;HPM_P2
2022/01/18 00:01:30;;;;;;;4.38;2.17;;;1.90;78.50;;;;;;5057892;28;20429;-38
2022/01/18 00:03:57;;;;;;;7.03;1.80;;;1.90;78.40;;;;;;5058101;28;20041;-35
2022/01/18 00:06:23;;;;;;;5.40;1.75;;;1.90;78.60;;;;;;5057962;28;20108;-38
2022/01/18 00:08:49;;;;;;;2.72;1.48;;;1.90;78.40;;;;;;5058520;28;20056;-36
2022/01/18 00:11:20;;;;;;;5.38;1.75;;;1.90;78.10;;;;;;5056743;28;20022;-39
2022/01/18 00:13:48;;;;;;;6.03;2.00;;;1.90;78.10;;;;;;5058491;28;20322;-38
2022/01/18 00:19:06;;;;;;;2.60;1.33;;;1.90;77.80;;;;;;5058581;28;20313;-36
2022/01/18 00:24:24;;;;;;;4.43;1.70;;;1.80;77.50;;;;;;5056996;28;20318;-36
2022/01/18 00:26:50;;;;;;;3.80;1.88;;;1.80;77.60;;;;;;5057811;28;20104;-35
2022/01/18 00:29:18;;;;;;;3.90;1.50;;;1.80;77.60;;;;;;5057472;28;20040;-37
2022/01/18 00:32:08;;;;;;;6.50;1.60;;;1.70;77.60;;;;;;5057619;28;20123;-38
2022/01/18 00:34:37;;;;;;;2.63;1.58;;;1.70;77.60;;;;;;5057747;28;20041;-38
2022/01/18 00:39:33;;;;;;;4.63;1.58;;;1.70;77.90;;;;;;5057799;28;20118;-37
2022/01/18 00:41:59;;;;;;;4.47;1.40;;;1.60;77.90;;;;;;5057837;28;20072;-38
2022/01/18 00:44:24;;;;;;;4.30;1.80;;;1.60;78.10;;;;;;5057462;28;20114;-37
2022/01/18 00:46:50;;;;;;;3.83;1.60;;;1.60;78.30;;;;;;5057460;28;20031;-35
2022/01/18 00:49:17;;;;;;;7.00;1.83;;;1.60;78.30;;;;;;5057146;28;20055;-37
2022/01/18 00:51:49;;;;;;;3.90;1.70;;;1.60;78.50;;;;;;5057557;28;20029;-36
2022/01/18 00:54:21;;;;;;;3.80;1.42;;;1.60;78.70;;;;;;5057563;28;20041;-36
2022/01/18 00:56:50;;;;;;;4.13;1.65;;;1.70;78.90;;;;;;5057220;28;20028;-38
2022/01/18 00:59:16;;;;;;;2.65;1.73;;;1.70;78.70;;;;;;5057012;28;20245;-35
2022/01/18 01:01:41;;;;;;;4.55;1.88;;;1.70;78.80;;;;;;5057531;28;20051;-37
2022/01/18 01:04:07;;;;;;;7.35;1.52;;;1.70;78.90;;;;;;5057453;28;20045;-35
2022/01/18 01:06:34;;;;;;;6.00;1.90;;;1.70;79.00;;;;;;5056830;28;20025;-37
2022/01/18 01:09:02;;;;;;;5.03;1.48;;;1.70;79.00;;;;;;5057225;28;20041;-36
2022/01/18 01:11:28;;;;;;;2.08;1.50;;;1.80;78.90;;;;;;5056953;28;20031;-39
2022/01/18 01:13:58;;;;;;;4.93;1.38;;;1.80;79.10;;;;;;5057196;28;20088;-35
2022/01/18 01:43:36;;;;;;;5.03;1.88;;;1.90;79.50;;;;;;5056637;28;20044;-36
2022/01/18 01:46:03;;;;;;;7.55;2.10;;;1.90;79.40;;;;;;5056376;28;20033;-37
2022/01/18 01:48:29;;;;;;;5.05;2.25;;;1.90;79.60;;;;;;5056399;28;20331;-35
2022/01/18 01:51:04;;;;;;;4.95;2.25;;;1.90;79.60;;;;;;5056141;28;20033;-36
2022/01/18 01:53:31;;;;;;;5.03;1.80;;;1.80;79.60;;;;;;5056368;28;20068;-36
2022/01/18 01:55:57;;;;;;;5.68;2.05;;;1.80;79.60;;;;;;5055977;28;20025;-37
2022/01/18 01:58:25;;;;;;;3.90;1.90;;;1.90;79.80;;;;;;5056461;28;20424;-37
2022/01/18 02:01:02;;;;;;;4.38;2.05;;;1.80;79.70;;;;;;5055877;28;20108;-35
2022/01/18 02:03:27;;;;;;;4.70;2.28;;;1.80;79.80;;;;;;5056212;28;20354;-37
2022/01/18 02:05:53;;;;;;;3.75;1.73;;;1.80;79.80;;;;;;5055810;28;20117;-38
2022/01/18 02:08:20;;;;;;;5.60;1.95;;;1.80;79.80;;;;;;5056168;28;20052;-39
2022/01/18 02:10:46;;;;;;;3.33;1.90;;;1.90;79.80;;;;;;5055472;28;20033;-36
2022/01/18 02:13:13;;;;;;;4.72;1.98;;;1.90;79.80;;;;;;5055937;28;20413;-37
2022/01/18 02:15:48;;;;;;;5.35;2.00;;;1.90;79.90;;;;;;5055765;28;20047;-37
2022/01/18 02:23:41;;;;;;;3.17;1.90;;;1.90;80.50;;;;;;5055983;28;20048;-38
2022/01/18 02:26:07;;;;;;;6.60;2.75;;;1.90;80.90;;;;;;5055663;28;20409;-36
2022/01/18 02:28:33;;;;;;;4.70;2.45;;;1.80;81.30;;;;;;5055986;28;20065;-37
2022/01/18 02:30:59;;;;;;;3.80;2.50;;;1.80;81.80;;;;;;5055574;28;20080;-37
2022/01/18 02:33:25;;;;;;;5.93;2.35;;;1.80;82.30;;;;;;5055849;28;20037;-39
2022/01/18 02:35:50;;;;;;;4.65;2.67;;;1.80;82.70;;;;;;5058798;28;20032;-36
2022/01/18 02:38:17;;;;;;;5.78;2.88;;;1.70;83.20;;;;;;5060079;28;20070;-37
2022/01/18 02:40:43;;;;;;;5.15;3.20;;;1.70;83.60;;;;;;5059781;28;20064;-35
2022/01/18 02:45:57;;;;;;;5.18;3.13;;;1.60;84.10;;;;;;5059756;28;20032;-36
2022/01/18 02:48:23;;;;;;;5.78;1.92;;;1.60;84.30;;;;;;5059844;28;20044;-36
2022/01/18 02:50:49;;;;;;;2.38;1.80;;;1.50;84.10;;;;;;5059511;28;20025;-36
2022/01/18 02:53:18;;;;;;;3.25;1.50;;;1.30;84.20;;;;;;5059819;28;20063;-39
2022/01/18 02:55:49;;;;;;;5.55;1.58;;;1.10;84.30;;;;;;5059396;28;20108;-36
2022/01/18 02:58:23;;;;;;;6.18;1.80;;;0.80;85.00;;;;;;5059544;28;20055;-37
2022/01/18 03:03:33;;;;;;;4.25;2.40;;;0.40;86.00;;;;;;5059883;28;20044;-37
2022/01/18 03:06:00;;;;;;;2.03;1.48;;;0.20;86.30;;;;;;5059140;28;20017;-38
2022/01/18 03:08:27;;;;;;;3.05;1.40;;;0.10;86.30;;;;;;5059519;28;20056;-38
2022/01/18 03:10:53;;;;;;;2.10;1.48;;;-0.10;86.10;;;;;;5059354;28;20321;-36
2022/01/18 03:13:19;;;;;;;4.00;1.30;;;-0.20;86.10;;;;;;5059442;28;20052;-36
2022/01/18 03:15:45;;;;;;;4.90;1.67;;;-0.30;86.20;;;;;;5059029;28;20040;-36
2022/01/18 03:18:11;;;;;;;2.72;1.70;;;-0.30;86.30;;;;;;5059241;28;20348;-36
2022/01/18 03:20:38;;;;;;;3.33;1.67;;;-0.40;86.40;;;;;;5058794;28;20028;-36
2022/01/18 03:23:09;;;;;;;4.90;1.50;;;-0.40;86.70;;;;;;5059234;28;20056;-35
2022/01/18 03:28:05;;;;;;;4.93;1.67;;;-0.50;87.20;;;;;;5059498;28;20021;-36
2022/01/18 03:30:41;;;;;;;2.92;1.48;;;-0.50;87.60;;;;;;5058812;28;20431;-37
2022/01/18 03:33:11;;;;;;;3.65;1.95;;;-0.50;87.80;;;;;;5058895;28;20033;-37
2022/01/18 03:35:37;;;;;;;2.13;1.60;;;-0.50;87.60;;;;;;5058958;28;20086;-35
2022/01/18 03:38:03;;;;;;;5.05;1.50;;;-0.60;87.30;;;;;;5058723;28;20029;-37
2022/01/18 03:40:29;;;;;;;1.83;1.20;;;-0.60;87.00;;;;;;5058392;28;20032;-37
2022/01/18 03:42:56;;;;;;;7.75;1.38;;;-0.60;86.80;;;;;;5058887;28;20448;-38
2022/01/18 03:45:29;;;;;;;1.95;1.25;;;-0.60;86.40;;;;;;5058679;28;20040;-36
2022/01/18 03:47:57;;;;;;;1.80;1.38;;;-0.70;85.90;;;;;;5059077;28;20048;-36
2022/01/18 03:50:23;;;;;;;4.50;1.50;;;-0.70;85.50;;;;;;5058136;28;20107;-37
2022/01/18 03:52:50;;;;;;;2.97;1.70;;;-0.70;85.60;;;;;;5058620;28;20128;-37
2022/01/18 03:55:19;;;;;;;3.38;1.67;;;-0.70;85.20;;;;;;5058704;28;20059;-36
2022/01/18 03:57:45;;;;;;;4.50;1.80;;;-0.60;85.10;;;;;;5058586;28;20040;-36
2022/01/18 04:00:20;;;;;;;5.50;1.50;;;-0.60;84.90;;;;;;5058387;28;20037;-35
2022/01/18 04:02:48;;;;;;;27.33;2.40;;;-0.60;84.10;;;;;;5058291;28;20086;-36
2022/01/18 04:05:14;;;;;;;9.02;2.30;;;-0.60;84.10;;;;;;5058508;28;20029;-36
2022/01/18 04:07:40;;;;;;;13.35;2.17;;;-0.60;83.80;;;;;;5058501;28;20039;-35
2022/01/18 04:10:07;;;;;;;6.65;1.60;;;-0.70;84.20;;;;;;5057781;28;20399;-36
2022/01/18 04:12:34;;;;;;;8.13;1.75;;;-0.70;84.30;;;;;;5058420;28;20330;-36
2022/01/18 04:15:05;;;;;;;4.47;1.48;;;-0.80;83.90;;;;;;5058184;28;20037;-36
2022/01/18 04:17:47;;;;;;;;;;;-0.90;84.50;;;;;;5058839;28;20418;-38
2022/01/18 04:25:59;;;;;;;5.72;1.70;;;-1.30;85.50;;;;;;5057553;28;20120;-38
2022/01/18 04:28:42;;;;;;;5.38;1.60;;;-1.30;85.60;;;;;;5057851;28;20036;-38
2022/01/18 04:31:09;;;;;;;3.47;1.23;;;-1.40;85.00;;;;;;5057672;28;20112;-38
2022/01/18 04:33:36;;;;;;;5.20;1.33;;;-1.40;84.60;;;;;;5057885;28;20090;-36
2022/01/18 04:36:04;;;;;;;3.67;1.55;;;-1.40;84.30;;;;;;5057294;28;20041;-39
2022/01/18 04:38:30;;;;;;;3.08;1.50;;;-1.40;84.00;;;;;;5057855;28;20048;-38
2022/01/18 04:41:06;;;;;;;2.90;1.40;;;-1.40;83.20;;;;;;5057173;28;20086;-38
2022/01/18 04:48:48;;;;;;;7.85;2.00;;;-1.40;81.00;;;;;;5057552;28;20072;-37
2022/01/18 04:51:14;;;;;;;2.15;1.30;;;-1.40;80.80;;;;;;5057119;28;20025;-39
2022/01/18 04:53:54;;;;;;;2.85;1.40;;;-1.30;80.50;;;;;;5057594;28;20051;-38
2022/01/18 04:59:10;;;;;;;4.85;1.52;;;-1.40;77.50;;;;;;5057215;28;20041;-38
2022/01/18 05:01:38;;;;;;;3.67;1.25;;;-1.50;76.60;;;;;;5057015;28;20025;-35
2022/01/18 05:04:04;;;;;;;3.53;1.27;;;-1.40;76.40;;;;;;5057397;28;20056;-36
2022/01/18 05:06:30;;;;;;;3.53;1.27;;;-1.50;73.60;;;;;;5057258;28;20047;-36
2022/01/18 05:08:57;;;;;;;6.43;1.70;;;-1.50;73.90;;;;;;5057100;28;20025;-35
2022/01/18 05:11:25;;;;;;;2.10;1.50;;;-1.50;73.00;;;;;;5057005;28;20123;-37
2022/01/18 05:14:12;;;;;;;3.22;1.70;;;-1.50;73.00;;;;;;5057270;28;20421;-36
2022/01/18 05:19:13;;;;;;;4.93;1.48;;;-1.50;72.50;;;;;;5056962;28;20039;-36
2022/01/18 05:24:24;;;;;;;3.45;2.10;;;-1.50;70.60;;;;;;5056473;28;20111;-37
2022/01/18 05:26:52;;;;;;;1.70;1.17;;;-1.50;71.30;;;;;;5056563;28;20116;-36
2022/01/18 05:29:17;;;;;;;3.60;1.58;;;-1.50;70.90;;;;;;5056563;28;20056;-38
2022/01/18 05:31:43;;;;;;;2.42;1.60;;;-1.50;70.60;;;;;;5056709;28;20361;-35
2022/01/18 05:34:09;;;;;;;5.55;1.83;;;-1.50;70.80;;;;;;5056688;28;20376;-36
2022/01/18 05:36:35;;;;;;;2.28;1.67;;;-1.60;70.00;;;;;;5056162;28;20035;-37
2022/01/18 05:39:01;;;;;;;6.95;1.50;;;-1.60;69.40;;;;;;5056745;28;20040;-38
2022/01/18 05:41:27;;;;;;;3.80;1.25;;;-1.60;69.40;;;;;;5055963;28;20052;-38
2022/01/18 05:43:53;;;;;;;3.28;1.10;;;-1.60;69.50;;;;;;5056361;28;20067;-39
2022/01/18 05:46:18;;;;;;;5.13;1.15;;;-1.60;68.70;;;;;;5055842;28;20025;-37
2022/01/18 05:48:44;;;;;;;1.77;1.10;;;-1.60;69.10;;;;;;5055931;28;20094;-37
2022/01/18 05:51:10;;;;;;;2.55;1.30;;;-1.70;69.00;;;;;;5055803;28;20025;-38
2022/01/18 05:53:36;;;;;;;2.20;1.27;;;-1.70;69.40;;;;;;5055920;28;20037;-36
2022/01/18 05:56:03;;;;;;;2.25;1.60;;;-1.60;69.10;;;;;;5055703;28;20035;-35
2022/01/18 05:58:29;;;;;;;25.20;2.45;;;-1.70;67.80;;;;;;5055971;28;20037;-39
2022/01/18 06:00:55;;;;;;;4.25;1.25;;;-1.70;68.40;;;;;;5055456;28;20025;-38
2022/01/18 06:03:49;;;;;;;2.88;1.40;;;-1.70;68.30;;;;;;5055996;28;20037;-37
2022/01/18 06:08:59;;;;;;;5.38;1.15;;;-1.60;68.80;;;;;;5055395;28;20036;-38
2022/01/18 06:11:25;;;;;;;2.65;1.42;;;-1.60;68.70;;;;;;5055335;28;20021;-36
2022/01/18 06:13:50;;;;;;;3.15;1.60;;;-1.60;68.60;;;;;;5055785;28;20064;-35
2022/01/18 06:16:16;;;;;;;4.70;1.63;;;-1.60;69.20;;;;;;5055207;28;20040;-35
2022/01/18 06:18:42;;;;;;;4.55;1.65;;;-1.60;69.50;;;;;;5055697;28;20090;-36
2022/01/18 06:21:07;;;;;;;6.60;2.58;;;-1.50;69.70;;;;;;5054941;28;20027;-36
2022/01/18 06:23:33;;;;;;;5.60;1.45;;;-1.50;69.80;;;;;;5054032;28;20072;-35
2022/01/18 06:26:02;;;;;;;2.65;1.55;;;-1.50;69.80;;;;;;5055489;28;20402;-38
2022/01/18 06:28:28;;;;;;;5.95;1.58;;;-1.50;69.90;;;;;;5055505;28;20029;-38
2022/01/18 06:30:54;;;;;;;9.60;1.60;;;-1.50;70.10;;;;;;5055382;28;20403;-35
2022/01/18 06:33:20;;;;;;;3.88;1.75;;;-1.50;70.30;;;;;;5055069;28;20114;-36
2022/01/18 06:35:45;;;;;;;3.63;1.75;;;-1.50;70.50;;;;;;5055651;28;20322;-38
2022/01/18 06:38:12;;;;;;;4.55;1.63;;;-1.50;71.40;;;;;;5055588;28;20029;-38
2022/01/18 06:40:38;;;;;;;2.97;1.52;;;-1.50;71.30;;;;;;5055078;28;20021;-38
2022/01/18 06:43:04;;;;;;;2.70;1.70;;;-1.50;71.50;;;;;;5055449;28;20119;-35
2022/01/18 06:45:30;;;;;;;3.83;1.25;;;-1.50;71.40;;;;;;5054745;28;20079;-35
2022/01/18 06:47:56;;;;;;;62.08;30.90;;;-1.50;71.50;;;;;;5055683;28;20017;-36
2022/01/18 06:50:21;;;;;;;2.25;1.55;;;-1.50;71.60;;;;;;5054940;28;20072;-37
2022/01/18 06:52:47;;;;;;;7.25;1.52;;;-1.50;71.70;;;;;;5055150;28;20071;-37
2022/01/18 06:55:13;;;;;;;4.00;1.40;;;-1.60;72.00;;;;;;5055286;28;20036;-35
2022/01/18 06:57:39;;;;;;;21.13;7.63;;;-1.60;72.30;;;;;;5055353;28;20456;-38
2022/01/18 07:00:06;;;;;;;3.05;1.73;;;-1.50;72.70;;;;;;5055314;28;20087;-37
2022/01/18 07:02:32;;;;;;;7.10;2.05;;;-1.50;72.90;;;;;;5055373;28;20098;-35
2022/01/18 07:04:57;;;;;;;3.13;1.50;;;-1.50;72.90;;;;;;5053759;28;20413;-37
2022/01/18 07:07:23;;;;;;;3.40;1.98;;;-1.50;73.10;;;;;;5055240;28;20025;-36
2022/01/18 07:09:49;;;;;;;4.30;2.40;;;-1.50;73.00;;;;;;5055104;28;20097;-35
2022/01/18 07:12:16;;;;;;;5.00;2.22;;;-1.40;73.10;;;;;;5054889;28;20021;-37
2022/01/18 07:14:42;;;;;;;2.15;1.63;;;-1.40;73.20;;;;;;5055230;28;20049;-35
2022/01/18 07:17:08;;;;;;;3.47;1.48;;;-1.40;73.90;;;;;;5054854;28;20087;-38
2022/01/18 07:19:34;;;;;;;4.43;1.35;;;-1.40;73.60;;;;;;5054769;28;20025;-38
2022/01/18 07:22:00;;;;;;;6.30;1.73;;;-1.40;73.60;;;;;;5057760;28;20104;-35
2022/01/18 07:24:44;;;;;;;10.18;1.63;;;-1.40;73.90;;;;;;5058727;28;20108;-38
2022/01/18 07:27:12;;;;;;;5.63;1.88;;;-1.40;74.00;;;;;;5058857;28;20122;-38
2022/01/18 07:29:41;;;;;;;38.70;16.48;;;-1.50;73.80;;;;;;5058482;28;20057;-36
2022/01/18 07:32:07;;;;;;;6.00;2.30;;;-1.50;73.90;;;;;;5058698;28;20329;-37
2022/01/18 07:34:35;;;;;;;2.97;1.60;;;-1.40;74.00;;;;;;5058538;28;20440;-35
2022/01/18 07:37:02;;;;;;;2.85;1.52;;;-1.40;73.40;;;;;;5058386;28;20035;-35
2022/01/18 07:39:28;;;;;;;3.83;1.30;;;-1.40;72.90;;;;;;5058767;28;20035;-38
2022/01/18 07:41:53;;;;;;;3.45;1.55;;;-1.40;72.70;;;;;;5058206;28;20373;-35
2022/01/18 07:44:19;;;;;;;1.58;1.40;;;-1.40;72.60;;;;;;5058560;28;20484;-35
2022/01/18 07:46:45;;;;;;;3.38;1.65;;;-1.30;72.20;;;;;;5058523;28;20036;-36
2022/01/18 07:49:10;;;;;;;3.63;1.52;;;-1.30;72.30;;;;;;5058275;28;20057;-38
2022/01/18 07:51:36;;;;;;;3.75;2.15;;;-1.30;71.60;;;;;;5057899;28;20417;-35
2022/01/18 07:54:02;;;;;;;5.53;2.80;;;-1.20;70.40;;;;;;5054857;28;20401;-35
2022/01/18 07:56:28;;;;;;;5.68;2.38;;;-1.20;70.10;;;;;;5057625;28;20029;-36
2022/01/18 07:58:53;;;;;;;6.40;2.50;;;-1.20;70.20;;;;;;5057979;28;20029;-35
2022/01/18 08:01:20;;;;;;;195.88;51.65;;;-1.20;69.70;;;;;;5057432;28;20214;-38
2022/01/18 08:03:45;;;;;;;4.63;2.35;;;-1.10;69.40;;;;;;5057649;28;20056;-37
2022/01/18 08:06:11;;;;;;;3.78;2.20;;;-1.10;69.20;;;;;;5057199;28;20083;-35
2022/01/18 08:08:39;;;;;;;7.05;4.18;;;-1.00;69.30;;;;;;5056523;28;20033;-37
2022/01/18 08:11:06;;;;;;;18.35;6.38;;;-1.00;69.00;;;;;;5057150;28;20032;-35
2022/01/18 08:13:38;;;;;;;7.70;3.20;;;-0.90;68.70;;;;;;5057665;28;20040;-35
2022/01/18 08:18:50;;;;;;;6.30;1.92;;;-0.80;67.80;;;;;;5057763;28;20040;-38
2022/01/18 08:21:16;;;;;;;6.72;3.38;;;-0.90;67.00;;;;;;5057297;28;20317;-38
2022/01/18 08:23:42;;;;;;;15.57;4.45;;;-0.90;67.00;;;;;;5057640;28;20033;-38
2022/01/18 08:26:07;;;;;;;2.08;1.55;;;-0.80;67.00;;;;;;5057259;28;20147;-35
2022/01/18 08:28:33;;;;;;;4.95;2.65;;;-0.80;67.00;;;;;;5057384;28;20414;-37
2022/01/18 08:30:59;;;;;;;2.70;1.55;;;-0.80;67.40;;;;;;5057038;28;20021;-37
2022/01/18 08:33:24;;;;;;;2.55;1.70;;;-0.80;66.90;;;;;;5056173;28;20041;-35
2022/01/18 08:35:51;;;;;;;4.20;1.88;;;-0.80;66.90;;;;;;5057140;28;20057;-38
2022/01/18 08:38:17;;;;;;;7.97;2.00;;;-0.80;66.90;;;;;;5056970;28;20036;-35
2022/01/18 08:40:42;;;;;;;11.02;4.40;;;-0.80;67.30;;;;;;5056950;28;20025;-38
2022/01/18 08:43:08;;;;;;;4.88;2.30;;;-0.70;67.20;;;;;;5056600;28;20468;-38
2022/01/18 08:45:34;;;;;;;2.58;1.63;;;-0.70;66.70;;;;;;5056656;28;20035;-35
2022/01/18 08:48:00;;;;;;;2.92;1.45;;;-0.80;66.90;;;;;;5056731;28;20025;-35
2022/01/18 08:50:26;;;;;;;4.53;2.25;;;-0.70;67.10;;;;;;5056241;28;20041;-37
2022/01/18 08:52:52;;;;;;;4.05;2.40;;;-0.80;66.60;;;;;;5057220;28;20274;-38
2022/01/18 08:55:20;;;;;;;3.13;1.50;;;-0.80;67.10;;;;;;5056793;28;20069;-38
2022/01/18 08:57:46;;;;;;;249.32;99.97;;;-0.80;67.60;;;;;;5057145;28;20060;-38
2022/01/18 09:00:14;;;;;;;4.45;2.17;;;-0.90;67.00;;;;;;5056663;28;20036;-35
2022/01/18 09:02:41;;;;;;;2.88;1.88;;;-0.80;67.30;;;;;;5056655;28;20029;-34
2022/01/18 09:05:07;;;;;;;3.35;1.77;;;-0.80;67.40;;;;;;5056265;28;20040;-39
2022/01/18 09:07:35;;;;;;;9.65;3.35;;;-0.80;67.50;;;;;;5056938;28;20360;-38
2022/01/18 09:10:05;;;;;;;5.88;1.75;;;-0.70;67.20;;;;;;5056553;28;20040;-37
2022/01/18 09:12:31;;;;;;;3.88;2.05;;;-0.70;66.90;;;;;;5056624;28;20029;-35
2022/01/18 09:15:00;;;;;;;7.03;2.08;;;-0.70;65.80;;;;;;5055924;28;20048;-37
2022/01/18 09:17:28;;;;;;;4.30;1.92;;;-0.70;66.80;;;;;;5056637;28;20070;-35
2022/01/18 09:19:54;;;;;;;5.78;2.53;;;-0.70;66.40;;;;;;5056269;28;20032;-38
2022/01/18 09:22:20;;;;;;;3.97;2.17;;;-0.70;65.70;;;;;;5056301;28;20029;-36
2022/01/18 09:24:45;;;;;;;5.20;2.15;;;-0.80;65.00;;;;;;5056454;28;20439;-35
2022/01/18 09:27:11;;;;;;;9.32;2.05;;;-0.80;65.30;;;;;;5056267;28;20025;-35
2022/01/18 09:29:39;;;;;;;4.60;2.33;;;-0.70;65.80;;;;;;5056443;28;20045;-38
2022/01/18 09:32:06;;;;;;;5.80;2.50;;;-0.70;65.60;;;;;;5056199;28;20024;-38
2022/01/18 09:34:32;;;;;;;5.40;2.75;;;-0.70;65.70;;;;;;5055883;28;20033;-39
2022/01/18 09:36:58;;;;;;;4.95;3.03;;;-0.70;65.70;;;;;;5055696;28;20017;-38
2022/01/18 09:39:25;;;;;;;2.72;1.63;;;-0.70;64.50;;;;;;5055637;28;20039;-39
2022/01/18 09:41:53;;;;;;;4.65;2.67;;;-0.70;64.50;;;;;;5055937;28;20313;-38
2022/01/18 09:44:20;;;;;;;5.65;2.92;;;-0.60;64.50;;;;;;5055456;28;20037;-35
2022/01/18 09:46:48;;;;;;;4.75;2.90;;;-0.60;65.00;;;;;;5056096;28;20061;-36
2022/01/18 09:49:14;;;;;;;4.95;2.08;;;-0.50;64.10;;;;;;5055160;28;20072;-36
2022/01/18 09:51:40;;;;;;;2.20;1.60;;;-0.40;63.80;;;;;;5056024;28;20028;-38
2022/01/18 09:54:06;;;;;;;4.05;1.88;;;-0.40;63.60;;;;;;5056177;28;20032;-37
2022/01/18 09:56:32;;;;;;;4.85;1.85;;;-0.30;63.40;;;;;;5055512;28;20336;-35
2022/01/18 09:58:57;;;;;;;3.15;1.80;;;-0.30;62.70;;;;;;5055730;28;20040;-37
2022/01/18 10:01:23;;;;;;;6.43;3.03;;;-0.30;63.00;;;;;;5055536;28;20091;-39
2022/01/18 10:03:49;;;;;;;10.23;2.72;;;-0.20;63.10;;;;;;5055671;28;20421;-35
2022/01/18 10:06:19;;;;;;;4.57;2.40;;;-0.20;63.00;;;;;;5055110;28;20083;-39
2022/01/18 10:08:48;;;;;;;6.22;2.13;;;-0.20;63.20;;;;;;5055393;28;20037;-35
2022/01/18 10:11:17;;;;;;;2.85;1.67;;;-0.20;63.50;;;;;;5055222;28;20029;-38
2022/01/18 10:13:45;;;;;;;3.70;1.90;;;-0.10;63.70;;;;;;5055881;28;20357;-37
2022/01/18 10:16:13;;;;;;;7.57;2.28;;;-0.20;63.70;;;;;;5055294;28;20028;-35
2022/01/18 10:18:47;;;;;;;9.73;2.83;;;-0.10;63.80;;;;;;5055777;28;20087;-37
2022/01/18 10:21:23;;;;;;;4.53;2.28;;;-0.10;63.90;;;;;;5054844;28;20053;-36
2022/01/18 10:23:49;;;;;;;4.03;1.63;;;-0.10;63.80;;;;;;5055450;28;20037;-39
2022/01/18 10:26:24;;;;;;;4.43;1.88;;;-0.10;63.40;;;;;;5054781;28;20045;-38
2022/01/18 10:29:04;;;;;;;4.20;2.22;;;-0.20;63.20;;;;;;5055257;28;20464;-39
2022/01/18 10:37:20;;;;;;;10.07;5.30;;;-0.10;64.40;;;;;;5055207;28;20107;-35
2022/01/18 10:39:53;;;;;;;11.80;4.15;;;0.00;64.50;;;;;;5054963;28;20032;-35
2022/01/18 10:42:29;;;;;;;5.22;2.22;;;0.00;64.40;;;;;;5055253;28;20035;-38
2022/01/18 10:45:04;;;;;;;3.03;1.50;;;0.00;64.50;;;;;;5054922;28;20032;-35
2022/01/18 10:47:31;;;;;;;3.00;1.75;;;0.00;64.70;;;;;;5055188;28;20044;-39
2022/01/18 10:50:05;;;;;;;19.02;10.10;;;-0.10;64.00;;;;;;5054575;28;20077;-35
2022/01/18 10:52:30;;;;;;;4.88;1.70;;;-0.10;64.10;;;;;;5055239;28;20021;-36
2022/01/18 10:54:58;;;;;;;4.57;1.67;;;-0.10;63.30;;;;;;5055146;28;20056;-35
2022/01/18 10:57:28;;;;;;;6.03;2.42;;;-0.10;62.90;;;;;;5059410;28;20495;-35
2022/01/18 11:00:03;;;;;;;3.38;1.90;;;-0.10;63.60;;;;;;5059014;28;20082;-35
2022/01/18 11:02:33;;;;;;;11.40;4.53;;;-0.10;63.60;;;;;;5059038;28;20490;-38
2022/01/18 11:04:59;;;;;;;9.18;3.00;;;-0.10;64.60;;;;;;5059066;28;20025;-35
2022/01/18 11:07:28;;;;;;;5.95;2.90;;;-0.10;65.20;;;;;;5059211;28;20321;-35
2022/01/18 11:10:03;;;;;;;7.63;4.35;;;-0.10;65.60;;;;;;5058709;28;20337;-35
2022/01/18 11:12:30;;;;;;;3.50;1.73;;;-0.10;65.50;;;;;;5059125;28;20411;-35
2022/01/18 11:15:04;;;;;;;6.00;2.70;;;-0.20;65.60;;;;;;5058762;28;20036;-39
2022/01/18 11:17:38;;;;;;;4.28;2.25;;;-0.10;65.40;;;;;;5059073;28;20033;-35
2022/01/18 11:20:05;;;;;;;2.50;1.88;;;-0.10;64.60;;;;;;5058804;28;20453;-36
2022/01/18 11:22:31;;;;;;;4.35;2.30;;;-0.10;64.80;;;;;;5058907;28;20048;-38
2022/01/18 11:24:59;;;;;;;9.00;2.55;;;-0.10;65.00;;;;;;5058727;28;20029;-35
2022/01/18 11:27:28;;;;;;;7.10;2.60;;;0.00;65.20;;;;;;5058701;28;20047;-36
2022/01/18 11:29:53;;;;;;;4.53;2.25;;;0.00;65.20;;;;;;5058590;28;20344;-37
2022/01/18 11:32:19;;;;;;;4.95;2.47;;;0.10;65.20;;;;;;5058441;28;20033;-35
2022/01/18 11:34:57;;;;;;;5.22;2.67;;;0.10;65.40;;;;;;5058187;28;20048;-38
2022/01/18 11:37:46;;;;;;;5.72;2.60;;;0.20;64.90;;;;;;5058370;28;20092;-36
2022/01/18 11:40:15;;;;;;;8.20;3.00;;;0.30;64.40;;;;;;5058296;28;20128;-35
2022/01/18 11:42:46;;;;;;;3.90;2.05;;;0.30;64.30;;;;;;5058310;28;20033;-35
2022/01/18 11:45:31;;;;;;;2.30;1.77;;;0.30;63.00;;;;;;5058271;28;20033;-38
2022/01/18 11:48:09;;;;;;;3.30;2.17;;;0.30;61.80;;;;;;5058432;28;20031;-35
2022/01/18 11:51:05;;;;;;;3.92;1.80;;;0.30;62.00;;;;;;5057810;28;20349;-36
2022/01/18 11:54:05;;;;;;;4.28;2.55;;;0.20;61.70;;;;;;5058599;28;20090;-38
2022/01/18 11:56:36;;;;;;;6.03;2.50;;;0.20;60.70;;;;;;5057693;28;20041;-36
2022/01/18 11:59:18;;;;;;;7.50;3.28;;;0.20;61.70;;;;;;5057723;28;20041;-39
2022/01/18 12:01:49;;;;;;;3.13;1.70;;;0.10;61.60;;;;;;5058080;28;20044;-37
2022/01/18 12:04:37;;;;;;;13.88;2.75;;;0.10;61.50;;;;;;5057852;28;20048;-35
2022/01/18 12:07:03;;;;;;;5.18;2.33;;;0.10;61.30;;;;;;5056390;28;20112;-38
2022/01/18 12:09:38;;;;;;;4.30;1.80;;;0.00;61.40;;;;;;5058107;28;20262;-35
2022/01/18 12:12:05;;;;;;;3.40;2.00;;;0.00;61.70;;;;;;5057791;28;20024;-35
2022/01/18 12:14:34;;;;;;;10.10;5.40;;;-0.10;61.50;;;;;;5057906;28;20041;-35
2022/01/18 12:17:26;;;;;;;4.55;2.35;;;-0.20;61.80;;;;;;5057585;28;20108;-37
2022/01/18 12:19:52;;;;;;;5.22;1.98;;;-0.30;62.90;;;;;;5057369;28;20076;-35
2022/01/18 12:22:56;;;;;;;10.93;2.90;;;-0.40;63.80;;;;;;5053497;28;20421;-38
2022/01/18 12:25:34;;;;;;;8.18;3.40;;;-0.40;64.60;;;;;;5057595;28;20029;-37
2022/01/18 12:28:48;;;;;;;18.95;2.88;;;-0.50;65.20;;;;;;5057438;28;20029;-35
2022/01/18 12:37:39;;;;;;;4.07;2.30;;;-0.70;65.50;;;;;;5057008;28;20098;-37
2022/01/18 12:40:05;;;;;;;4.07;2.47;;;-0.70;65.60;;;;;;5057203;28;20124;-37
2022/01/18 12:45:37;;;;;;;5.95;2.80;;;-0.70;66.40;;;;;;5057202;28;20037;-43
2022/01/18 12:48:09;;;;;;;6.35;2.97;;;-0.70;65.40;;;;;;5057337;28;20037;-37
2022/01/18 12:50:37;;;;;;;5.38;2.60;;;-0.70;66.10;;;;;;5056538;28;20056;-35
2022/01/18 12:53:12;;;;;;;5.40;2.78;;;-0.60;65.60;;;;;;5049524;28;20026;-44
2022/01/18 12:55:55;;;;;;;7.47;2.63;;;-0.60;65.30;;;;;;5037083;28;20029;-35
2022/01/18 12:58:28;;;;;;;4.13;2.00;;;-0.60;65.20;;;;;;5036846;28;20057;-36
2022/01/18 13:00:55;;;;;;;5.68;2.50;;;-0.60;64.40;;;;;;5036635;28;20108;-45
2022/01/18 13:03:23;;;;;;;11.95;9.13;;;-0.50;64.80;;;;;;5036607;28;20041;-35
2022/01/18 13:05:52;;;;;;;3.85;2.30;;;-0.50;65.00;;;;;;5036687;28;20034;-45
2022/01/18 13:08:19;;;;;;;3.90;2.30;;;-0.40;64.40;;;;;;5036946;28;20469;-45
2022/01/18 13:10:48;;;;;;;7.72;2.90;;;-0.40;64.20;;;;;;5036440;28;20042;-45
2022/01/18 13:13:19;;;;;;;5.45;2.83;;;-0.30;64.20;;;;;;5037022;28;20078;-35
2022/01/18 13:26:48;;;;;;;6.18;2.88;;;-0.30;64.30;;;;;;5036507;28;20112;-45
2022/01/18 13:29:21;;;;;;;18.33;6.55;;;-0.40;65.00;;;;;;5036440;28;20084;-35
2022/01/18 13:32:21;;;;;;;24.23;9.88;;;-0.40;66.70;;;;;;5035711;28;20073;-36
2022/01/18 13:34:49;;;;;;;14.48;7.30;;;-0.60;68.90;;;;;;5036181;28;20033;-45
2022/01/18 13:37:18;;;;;;;36.17;17.23;;;-0.70;69.80;;;;;;5036261;28;20033;-45
2022/01/18 13:39:50;;;;;;;10.65;4.05;;;-0.80;70.30;;;;;;5036182;28;20034;-46
2022/01/18 13:42:18;;;;;;;4.65;2.70;;;-0.90;70.40;;;;;;5035528;28;20103;-35
2022/01/18 13:45:28;;;;;;;6.82;3.45;;;-0.90;70.60;;;;;;5036189;28;20037;-45
2022/01/18 13:47:58;;;;;;;8.23;3.72;;;-0.90;70.70;;;;;;5035587;28;20045;-45
2022/01/18 13:50:55;;;;;;;3.47;1.95;;;-1.00;69.60;;;;;;5035566;28;20140;-45
2022/01/18 13:53:34;;;;;;;3.88;2.28;;;-1.00;69.00;;;;;;5036110;28;20065;-34
2022/01/18 13:56:04;;;;;;;2.92;2.05;;;-1.00;68.90;;;;;;5035679;28;20343;-45
2022/01/18 13:58:32;;;;;;;4.90;2.90;;;-1.00;68.80;;;;;;5036047;28;20326;-36
2022/01/18 14:01:13;;;;;;;8.57;2.67;;;-1.00;68.70;;;;;;5035484;28;20029;-35
2022/01/18 14:03:41;;;;;;;8.98;2.88;;;-0.90;68.50;;;;;;5036075;28;20037;-45
2022/01/18 14:06:08;;;;;;;5.70;2.28;;;-0.90;68.00;;;;;;5035780;28;20032;-45
2022/01/18 14:08:39;;;;;;;6.13;3.08;;;-0.90;67.70;;;;;;5035276;28;20064;-45
2022/01/18 14:11:10;;;;;;;5.68;2.92;;;-1.00;67.10;;;;;;5035317;28;20021;-45
2022/01/18 14:13:38;;;;;;;8.93;3.85;;;-1.00;67.30;;;;;;5035380;28;20069;-45
2022/01/18 14:16:28;;;;;;;12.00;3.92;;;-1.00;67.60;;;;;;5034746;28;20120;-45
2022/01/18 14:19:03;;;;;;;4.40;2.10;;;-1.00;67.80;;;;;;5037675;28;20041;-45
2022/01/18 14:21:35;;;;;;;8.45;3.72;;;-1.00;67.80;;;;;;5035301;28;20038;-35
2022/01/18 14:24:11;;;;;;;13.38;2.35;;;-1.00;67.80;;;;;;5035376;28;20038;-44
2022/01/18 14:26:41;;;;;;;10.25;2.53;;;-1.00;68.30;;;;;;5035093;28;20036;-44
2022/01/18 14:29:07;;;;;;;3.95;2.33;;;-1.00;68.30;;;;;;5035432;28;20173;-36
2022/01/18 14:31:33;;;;;;;4.05;2.10;;;-1.00;68.10;;;;;;5034345;28;20025;-44
2022/01/18 14:33:58;;;;;;;4.95;2.33;;;-1.00;68.10;;;;;;5035548;28;20041;-34
2022/01/18 14:36:24;;;;;;;5.70;2.90;;;-1.00;68.20;;;;;;5035201;28;20075;-35
2022/01/18 14:39:05;;;;;;;4.63;2.00;;;-1.00;68.30;;;;;;5035694;28;20108;-35